X  Close Metar Aviation Weather Data        EHGG Groningen Airport Eelde
Temperature
7°C Temperature
6°C Dewpoint
93% Humidity



Wind
4 KM/H
2 MPH
1 M/S
2 KTS



-1°
VRB
Current Conditions

Cloudy Cloudy
Pressure 1021 (hPa) - 30.15 (inHg)
Visibility 5 (mile) - 8 (km)
Airport
Airport-code EHGG

Location: Groningen Airport Eelde
Distance: 14 (km)

Metar:
METAR EHGG 292255Z AUTO VRB02KT 8000 SCT017 OVC021 07/06 Q1021

Time: 29-11-2022 23:55 CET